createdAt,value
2017-09-04T00:02:12.672Z,83.30
2017-09-04T00:04:40.411Z,83.90
2017-09-04T00:07:08.098Z,84.00
2017-09-04T00:09:35.836Z,84.20
2017-09-04T00:12:03.507Z,85.40
2017-09-04T00:14:31.202Z,84.30
2017-09-04T00:16:58.942Z,84.10
2017-09-04T00:19:26.603Z,83.30
2017-09-04T00:21:54.355Z,83.80
2017-09-04T00:24:22.023Z,84.10
2017-09-04T00:26:49.742Z,83.70
2017-09-04T00:29:17.415Z,83.40
2017-09-04T00:31:45.156Z,83.40
2017-09-04T00:34:12.892Z,83.70
2017-09-04T00:36:40.611Z,84.70
2017-09-04T00:39:08.327Z,85.90
2017-09-04T00:41:36.003Z,86.10
2017-09-04T00:44:03.811Z,86.40
2017-09-04T00:46:31.479Z,86.50
2017-09-04T00:48:59.163Z,85.40
2017-09-04T00:51:26.879Z,84.50
2017-09-04T00:53:54.564Z,84.30
2017-09-04T00:56:22.316Z,85.80
2017-09-04T00:58:49.987Z,85.20
2017-09-04T01:01:17.732Z,85.30
2017-09-04T01:03:45.402Z,83.60
2017-09-04T01:06:13.216Z,83.00
2017-09-04T01:08:40.912Z,83.20
2017-09-04T01:11:08.590Z,84.30
2017-09-04T01:13:36.337Z,84.50
2017-09-04T01:16:04.076Z,84.90
2017-09-04T01:18:31.794Z,84.00
2017-09-04T01:20:59.467Z,83.90
2017-09-04T01:23:27.184Z,84.60
2017-09-04T01:25:54.841Z,84.70
2017-09-04T01:28:22.563Z,84.60
2017-09-04T01:30:50.235Z,84.00
2017-09-04T01:33:17.986Z,83.70
2017-09-04T01:35:45.643Z,85.00
2017-09-04T01:38:13.400Z,84.70
2017-09-04T01:40:41.109Z,85.20
2017-09-04T01:43:08.803Z,85.50
2017-09-04T01:45:36.539Z,86.00
2017-09-04T01:48:04.209Z,86.00
2017-09-04T01:50:31.946Z,85.20
2017-09-04T01:52:59.607Z,85.10
2017-09-04T01:55:27.263Z,84.70
2017-09-04T01:57:54.990Z,84.90
2017-09-04T02:00:22.723Z,85.00
2017-09-04T02:02:50.395Z,85.50
2017-09-04T02:05:18.068Z,85.10
2017-09-04T02:07:45.808Z,85.40
2017-09-04T02:10:13.572Z,84.90
2017-09-04T02:12:42.061Z,84.70
2017-09-04T02:15:09.729Z,85.10
2017-09-04T02:17:37.387Z,85.30
2017-09-04T02:20:05.115Z,85.40
2017-09-04T02:22:32.776Z,85.80
2017-09-04T02:25:00.495Z,85.60
2017-09-04T02:27:28.941Z,86.10
2017-09-04T02:29:57.480Z,85.40
2017-09-04T02:32:25.151Z,85.10
2017-09-04T02:34:52.880Z,85.10
2017-09-04T02:37:20.605Z,85.30
2017-09-04T02:39:48.329Z,84.80
2017-09-04T02:42:15.996Z,84.80
2017-09-04T02:44:43.717Z,85.80
2017-09-04T02:47:11.384Z,86.20
2017-09-04T02:49:39.119Z,86.60
2017-09-04T02:52:06.788Z,85.30
2017-09-04T02:54:34.455Z,85.30
2017-09-04T02:57:02.182Z,85.70
2017-09-04T02:59:29.848Z,85.30
2017-09-04T03:01:57.604Z,84.60
2017-09-04T03:04:25.268Z,85.00
2017-09-04T03:06:53.003Z,84.60
2017-09-04T03:09:20.671Z,85.00
2017-09-04T03:11:48.437Z,84.60
2017-09-04T03:14:16.179Z,84.70
2017-09-04T03:16:43.915Z,84.60
2017-09-04T03:19:11.631Z,85.30
2017-09-04T03:21:39.400Z,85.40
2017-09-04T03:24:07.353Z,85.80
2017-09-04T03:26:35.086Z,85.50
2017-09-04T03:29:02.868Z,85.10
2017-09-04T03:31:30.583Z,85.40
2017-09-04T03:33:58.368Z,85.40
2017-09-04T03:36:26.081Z,85.50
2017-09-04T03:38:53.818Z,85.40
2017-09-04T03:41:21.692Z,85.70
2017-09-04T03:43:49.473Z,87.30
2017-09-04T03:46:17.280Z,86.40
2017-09-04T03:48:45.079Z,85.60
2017-09-04T03:51:12.887Z,85.60
2017-09-04T03:53:40.652Z,85.70
2017-09-04T03:56:08.408Z,86.80
2017-09-04T03:58:36.176Z,86.50
2017-09-04T04:01:03.929Z,87.50
2017-09-04T04:03:31.660Z,88.00
2017-09-04T04:05:59.430Z,88.50
2017-09-04T04:08:27.148Z,88.60
2017-09-04T04:10:54.927Z,88.30
2017-09-04T04:13:22.669Z,88.70
2017-09-04T04:15:50.471Z,88.90
2017-09-04T04:18:18.147Z,88.70
2017-09-04T04:20:45.875Z,90.10
2017-09-04T04:23:13.583Z,90.40
2017-09-04T04:25:41.231Z,89.40
2017-09-04T04:28:08.959Z,87.50
2017-09-04T04:30:36.679Z,86.80
2017-09-04T04:33:04.391Z,87.30
2017-09-04T04:35:32.064Z,87.10
2017-09-04T04:37:59.786Z,86.90
2017-09-04T04:40:27.448Z,88.30
2017-09-04T04:42:55.149Z,88.70
2017-09-04T04:45:22.808Z,88.50
2017-09-04T04:47:50.516Z,87.90
2017-09-04T04:50:18.196Z,86.70
2017-09-04T04:52:45.899Z,86.20
2017-09-04T04:55:13.598Z,86.10
2017-09-04T04:57:41.308Z,86.00
2017-09-04T05:00:08.980Z,86.30
2017-09-04T05:02:37.814Z,86.40
2017-09-04T05:05:05.480Z,86.30
2017-09-04T05:07:33.188Z,86.10
2017-09-04T05:10:00.920Z,87.50
2017-09-04T05:12:28.625Z,87.40
2017-09-04T05:14:56.285Z,87.60
2017-09-04T05:17:23.993Z,87.80
2017-09-04T05:19:51.653Z,88.10
2017-09-04T05:22:19.377Z,88.40
2017-09-04T05:24:47.040Z,86.50
2017-09-04T05:27:14.701Z,86.60
2017-09-04T05:29:42.406Z,86.60
2017-09-04T05:32:10.073Z,86.60
2017-09-04T05:34:37.785Z,86.90
2017-09-04T05:37:05.453Z,87.10
2017-09-04T05:39:33.146Z,87.90
2017-09-04T05:42:00.811Z,87.00
2017-09-04T05:44:28.515Z,86.70
2017-09-04T05:46:56.346Z,86.50
2017-09-04T05:49:24.058Z,86.50
2017-09-04T05:51:51.724Z,86.50
2017-09-04T05:54:19.422Z,86.50
2017-09-04T05:56:47.079Z,87.00
2017-09-04T05:59:14.784Z,87.20
2017-09-04T06:01:42.487Z,87.00
2017-09-04T06:04:10.192Z,87.10
2017-09-04T06:06:37.861Z,88.40
2017-09-04T06:09:05.569Z,88.60
2017-09-04T06:11:33.285Z,88.70
2017-09-04T06:14:01.004Z,87.70
2017-09-04T06:16:28.702Z,87.20
2017-09-04T06:18:56.413Z,86.80
2017-09-04T06:21:24.088Z,85.80
2017-09-04T06:23:51.821Z,84.80
2017-09-04T06:26:19.501Z,83.50
2017-09-04T06:28:47.159Z,83.20
2017-09-04T06:31:14.860Z,83.90
2017-09-04T06:33:42.521Z,82.90
2017-09-04T06:36:10.232Z,83.10
2017-09-04T06:38:37.896Z,83.50
2017-09-04T06:41:05.595Z,82.80
2017-09-04T06:43:33.261Z,82.50
2017-09-04T06:46:00.968Z,82.30
2017-09-04T06:48:28.635Z,82.80
2017-09-04T06:50:56.385Z,81.90
2017-09-04T06:53:24.055Z,81.30
2017-09-04T06:55:51.764Z,81.20
2017-09-04T06:58:19.432Z,81.30
2017-09-04T07:00:47.135Z,81.90
2017-09-04T07:03:14.799Z,81.60
2017-09-04T07:05:42.504Z,80.40
2017-09-04T07:08:10.174Z,79.80
2017-09-04T07:10:37.883Z,81.20
2017-09-04T07:13:05.595Z,81.70
2017-09-04T07:15:33.309Z,80.80
2017-09-04T07:18:00.972Z,80.80
2017-09-04T07:20:28.674Z,82.20
2017-09-04T07:22:56.338Z,81.70
2017-09-04T07:25:24.053Z,81.00
2017-09-04T07:27:51.727Z,80.90
2017-09-04T07:30:19.387Z,79.80
2017-09-04T07:32:47.084Z,77.30
2017-09-04T07:35:14.748Z,77.00
2017-09-04T07:37:42.450Z,75.60
2017-09-04T07:40:10.127Z,73.90
2017-09-04T07:42:37.831Z,73.20
2017-09-04T07:45:05.488Z,73.40
2017-09-04T07:47:33.209Z,72.70
2017-09-04T07:50:00.895Z,73.30
2017-09-04T07:52:28.602Z,71.00
2017-09-04T07:54:56.270Z,71.80
2017-09-04T07:57:23.996Z,70.40
2017-09-04T07:59:51.670Z,70.00
2017-09-04T08:02:19.384Z,69.40
2017-09-04T08:04:47.072Z,70.00
2017-09-04T08:07:14.788Z,68.70
2017-09-04T08:09:42.458Z,69.10
2017-09-04T08:12:10.163Z,68.70
2017-09-04T08:14:37.861Z,67.40
2017-09-04T08:17:05.571Z,66.70
2017-09-04T08:19:33.232Z,66.20
2017-09-04T08:22:00.934Z,68.00
2017-09-04T08:24:28.602Z,66.60
2017-09-04T08:26:56.317Z,66.90
2017-09-04T08:29:23.978Z,66.40
2017-09-04T08:31:51.636Z,66.20
2017-09-04T08:34:19.354Z,66.40
2017-09-04T08:36:47.011Z,65.60
2017-09-04T08:39:14.724Z,64.60
2017-09-04T08:41:42.392Z,63.40
2017-09-04T08:44:10.911Z,64.00
2017-09-04T08:46:38.577Z,64.00
2017-09-04T08:49:06.288Z,62.90
2017-09-04T08:51:33.968Z,63.70
2017-09-04T08:54:01.707Z,63.10
2017-09-04T08:56:29.371Z,63.20
2017-09-04T08:58:57.088Z,62.90
2017-09-04T09:01:24.815Z,62.60
2017-09-04T09:03:52.519Z,61.70
2017-09-04T09:06:20.187Z,60.60
2017-09-04T09:08:47.878Z,63.10
2017-09-04T09:11:15.539Z,61.20
2017-09-04T09:13:43.254Z,59.90
2017-09-04T09:16:10.917Z,59.30
2017-09-04T09:18:38.624Z,60.20
2017-09-04T09:21:06.296Z,61.30
2017-09-04T09:23:34.030Z,60.60
2017-09-04T09:26:01.731Z,61.00
2017-09-04T09:28:29.474Z,59.70
2017-09-04T09:30:57.160Z,58.50
2017-09-04T09:33:24.893Z,57.80
2017-09-04T09:35:52.556Z,58.40
2017-09-04T09:38:20.216Z,57.50
2017-09-04T09:40:47.928Z,58.10
2017-09-04T09:43:15.584Z,57.70
2017-09-04T09:45:43.295Z,55.70
2017-09-04T09:48:10.963Z,55.10
2017-09-04T09:50:38.722Z,56.30
2017-09-04T09:53:06.423Z,54.90
2017-09-04T09:55:34.166Z,55.80
2017-09-04T09:58:01.868Z,54.70
2017-09-04T10:00:29.660Z,52.80
2017-09-04T10:02:57.371Z,52.80
2017-09-04T10:05:25.116Z,52.80
2017-09-04T10:07:52.815Z,53.30
2017-09-04T10:10:20.559Z,53.60
2017-09-04T10:12:48.301Z,54.10
2017-09-04T10:15:16.058Z,53.00
2017-09-04T10:17:43.762Z,52.80
2017-09-04T10:20:11.511Z,53.10
2017-09-04T10:22:39.219Z,53.20
2017-09-04T10:25:06.967Z,52.90
2017-09-04T10:27:34.669Z,53.60
2017-09-04T10:30:02.420Z,53.40
2017-09-04T10:32:30.123Z,53.60
2017-09-04T10:34:57.871Z,52.60
2017-09-04T10:37:25.579Z,52.20
2017-09-04T10:39:53.278Z,53.20
2017-09-04T10:42:21.028Z,52.70
2017-09-04T10:44:48.740Z,52.10
2017-09-04T10:47:16.493Z,54.00
2017-09-04T10:49:44.191Z,52.50
2017-09-04T10:52:11.935Z,52.40
2017-09-04T10:54:39.641Z,51.70
2017-09-04T10:57:07.347Z,49.50
2017-09-04T10:59:35.051Z,51.50
2017-09-04T11:02:02.776Z,48.20
2017-09-04T11:04:30.463Z,47.40
2017-09-04T11:06:58.167Z,47.20
2017-09-04T11:09:25.835Z,50.00
2017-09-04T11:11:53.581Z,47.40
2017-09-04T11:14:21.289Z,46.00
2017-09-04T11:16:49.043Z,47.90
2017-09-04T11:19:16.756Z,48.10
2017-09-04T11:21:44.501Z,44.90
2017-09-04T11:24:12.226Z,47.20
2017-09-04T11:26:39.984Z,47.30
2017-09-04T11:29:07.693Z,46.10
2017-09-04T11:31:35.437Z,49.40
2017-09-04T11:34:03.135Z,46.30
2017-09-04T11:36:30.899Z,46.50
2017-09-04T11:38:58.560Z,47.00
2017-09-04T11:41:27.060Z,47.70
2017-09-04T11:43:54.769Z,47.60
2017-09-04T11:46:22.436Z,45.10
2017-09-04T11:48:50.145Z,46.30
2017-09-04T11:51:17.864Z,48.00
2017-09-04T11:53:45.588Z,48.70
2017-09-04T11:56:13.263Z,47.60
2017-09-04T11:58:40.973Z,49.30
2017-09-04T12:01:08.686Z,48.70
2017-09-04T12:03:36.437Z,48.70
2017-09-04T12:06:04.107Z,47.90
2017-09-04T12:08:31.843Z,46.40
2017-09-04T12:10:59.550Z,44.30
2017-09-04T12:13:27.255Z,45.50
2017-09-04T12:15:54.928Z,43.60
2017-09-04T12:18:22.641Z,46.50
2017-09-04T12:20:50.356Z,41.70
2017-09-04T12:23:18.080Z,44.10
2017-09-04T12:25:46.034Z,45.60
2017-09-04T12:28:13.783Z,41.40
2017-09-04T12:30:41.482Z,43.50
2017-09-04T12:33:09.228Z,44.60
2017-09-04T12:35:36.936Z,44.40
2017-09-04T12:38:04.695Z,45.20
2017-09-04T12:40:32.416Z,46.30
2017-09-04T12:43:00.184Z,42.50
2017-09-04T12:45:27.857Z,45.30
2017-09-04T12:47:55.512Z,43.90
2017-09-04T12:50:23.260Z,43.80
2017-09-04T12:52:50.940Z,42.90
2017-09-04T12:55:18.646Z,42.20
2017-09-04T12:57:46.308Z,42.90
2017-09-04T13:00:14.019Z,42.00
2017-09-04T13:02:41.683Z,43.70
2017-09-04T13:05:09.399Z,41.90
2017-09-04T13:07:46.997Z,41.00
2017-09-04T13:10:20.448Z,43.30
2017-09-04T13:12:48.148Z,40.00
2017-09-04T13:18:22.206Z,41.10
2017-09-04T13:20:55.537Z,40.90
2017-09-04T13:23:27.261Z,40.10
2017-09-04T13:29:03.296Z,39.40
2017-09-04T13:31:37.689Z,38.80
2017-09-04T13:34:21.200Z,38.80
2017-09-04T13:40:11.413Z,38.70
2017-09-04T13:42:49.946Z,38.70
2017-09-04T13:45:23.315Z,40.20
2017-09-04T13:47:56.756Z,39.30
2017-09-04T13:53:33.643Z,40.30
2017-09-04T13:59:22.817Z,38.20
2017-09-04T14:02:10.221Z,38.70
2017-09-04T14:04:53.751Z,37.70
2017-09-04T14:10:26.125Z,39.30
2017-09-04T14:12:59.472Z,39.20
2017-09-04T14:18:30.894Z,36.10
2017-09-04T14:20:58.603Z,36.20
2017-09-04T14:23:26.313Z,35.60
2017-09-04T14:25:54.060Z,37.20
2017-09-04T14:28:21.774Z,37.20
2017-09-04T14:30:49.529Z,36.10
2017-09-04T14:33:17.234Z,37.30
2017-09-04T14:35:44.995Z,37.40
2017-09-04T14:38:12.701Z,37.50
2017-09-04T14:40:55.301Z,36.90
2017-09-04T14:43:28.524Z,37.40
2017-09-04T14:45:59.197Z,38.10
2017-09-04T14:48:45.652Z,36.80
2017-09-04T14:51:13.398Z,38.60
2017-09-04T14:53:41.102Z,38.90
2017-09-04T14:56:08.871Z,37.00
2017-09-04T14:58:36.588Z,38.00
2017-09-04T15:01:04.243Z,38.40
2017-09-04T15:03:31.987Z,38.40
2017-09-04T15:05:59.684Z,39.20
2017-09-04T15:08:27.436Z,39.60
2017-09-04T15:10:55.140Z,39.90
2017-09-04T15:13:22.888Z,41.70
2017-09-04T15:15:50.596Z,42.00
2017-09-04T15:18:18.344Z,43.00
2017-09-04T15:20:46.048Z,42.80
2017-09-04T15:23:13.798Z,42.60
2017-09-04T15:25:41.536Z,41.80
2017-09-04T15:28:10.048Z,42.60
2017-09-04T15:30:37.757Z,42.50
2017-09-04T15:33:05.508Z,41.90
2017-09-04T15:35:33.216Z,42.20
2017-09-04T15:38:00.961Z,43.10
2017-09-04T15:40:28.675Z,43.00
2017-09-04T15:42:56.423Z,42.30
2017-09-04T15:45:24.140Z,42.30
2017-09-04T15:47:51.884Z,41.80
2017-09-04T15:50:19.585Z,42.20
2017-09-04T15:52:47.359Z,43.20
2017-09-04T15:55:15.072Z,42.30
2017-09-04T15:57:42.780Z,44.00
2017-09-04T16:00:10.555Z,43.50
2017-09-04T16:02:38.280Z,42.70
2017-09-04T16:05:06.032Z,43.60
2017-09-04T16:07:33.732Z,42.60
2017-09-04T16:10:01.484Z,42.20
2017-09-04T16:12:39.091Z,43.90
2017-09-04T16:15:09.644Z,43.80
2017-09-04T16:17:43.041Z,44.10
2017-09-04T16:20:14.311Z,44.70
2017-09-04T16:22:51.905Z,45.60
2017-09-04T16:25:20.556Z,45.80
2017-09-04T16:27:50.163Z,45.10
2017-09-04T16:33:24.481Z,47.20
2017-09-04T16:35:55.864Z,47.50
2017-09-04T16:38:38.399Z,48.10
2017-09-04T16:41:22.029Z,48.20
2017-09-04T16:43:53.204Z,47.90
2017-09-04T16:46:22.745Z,48.40
2017-09-04T16:48:52.975Z,48.30
2017-09-04T16:51:22.659Z,48.70
2017-09-04T16:53:55.187Z,49.60
2017-09-04T16:56:41.584Z,49.30
2017-09-04T16:59:09.291Z,50.00
2017-09-04T17:01:37.044Z,50.20
2017-09-04T17:04:04.748Z,51.00
2017-09-04T17:06:32.499Z,51.40
2017-09-04T17:09:15.044Z,51.70
2017-09-04T17:11:44.587Z,52.60
2017-09-04T17:14:12.287Z,53.40
2017-09-04T17:16:40.974Z,54.40
2017-09-04T17:19:08.685Z,54.50
2017-09-04T17:21:51.283Z,54.80
2017-09-04T17:24:21.581Z,55.10
2017-09-04T17:26:49.336Z,55.90
2017-09-04T17:29:17.052Z,56.40
2017-09-04T17:31:44.804Z,56.80
2017-09-04T17:34:12.509Z,56.80
2017-09-04T17:36:40.250Z,56.70
2017-09-04T17:39:08.724Z,57.10
2017-09-04T17:41:36.484Z,57.10
2017-09-04T17:44:04.965Z,57.60
2017-09-04T17:46:32.716Z,57.60
2017-09-04T17:49:00.430Z,58.20
2017-09-04T17:51:28.187Z,58.10
2017-09-04T17:53:55.896Z,59.00
2017-09-04T17:56:23.599Z,58.70
2017-09-04T17:58:51.341Z,59.60
2017-09-04T18:01:19.053Z,59.70
2017-09-04T18:03:46.806Z,60.30
2017-09-04T18:06:14.474Z,60.80
2017-09-04T18:08:42.176Z,60.90
2017-09-04T18:11:09.838Z,60.50
2017-09-04T18:13:37.532Z,61.20
2017-09-04T18:16:05.237Z,61.40
2017-09-04T18:18:32.976Z,61.40
2017-09-04T18:21:00.680Z,61.20
2017-09-04T18:23:28.426Z,61.90
2017-09-04T18:25:56.132Z,61.70
2017-09-04T18:28:23.849Z,61.70
2017-09-04T18:30:51.548Z,61.70
2017-09-04T18:33:19.339Z,61.50
2017-09-04T18:35:47.020Z,61.90
2017-09-04T18:38:14.724Z,62.30
2017-09-04T18:40:42.417Z,62.80
2017-09-04T18:43:10.156Z,62.80
2017-09-04T18:45:37.881Z,63.00
2017-09-04T18:48:05.636Z,64.00
2017-09-04T18:50:33.342Z,64.30
2017-09-04T18:53:01.097Z,64.60
2017-09-04T18:55:28.800Z,65.30
2017-09-04T18:57:56.504Z,65.50
2017-09-04T19:00:24.250Z,65.90
2017-09-04T19:02:51.931Z,67.20
2017-09-04T19:05:19.644Z,66.60
2017-09-04T19:07:47.412Z,67.00
2017-09-04T19:10:15.128Z,67.40
2017-09-04T19:12:42.801Z,67.50
2017-09-04T19:15:10.558Z,67.50
2017-09-04T19:17:38.279Z,67.60
2017-09-04T19:20:06.044Z,67.90
2017-09-04T19:22:33.747Z,68.80
2017-09-04T19:25:01.521Z,69.00
2017-09-04T19:27:29.237Z,69.40
2017-09-04T19:29:57.004Z,69.60
2017-09-04T19:32:24.720Z,70.10
2017-09-04T19:34:52.474Z,70.20
2017-09-04T19:37:20.171Z,70.50
2017-09-04T19:39:47.885Z,71.30
2017-09-04T19:42:15.593Z,71.60
2017-09-04T19:44:43.309Z,72.40
2017-09-04T19:47:11.032Z,72.40
2017-09-04T19:49:38.737Z,72.20
2017-09-04T19:52:06.533Z,72.40
2017-09-04T19:54:34.312Z,71.80
2017-09-04T19:57:02.052Z,72.40
2017-09-04T19:59:29.830Z,72.70
2017-09-04T20:01:57.499Z,72.90
2017-09-04T20:04:25.201Z,73.00
2017-09-04T20:06:52.947Z,72.70
2017-09-04T20:09:20.648Z,73.30
2017-09-04T20:11:48.405Z,73.60
2017-09-04T20:14:16.872Z,73.60
2017-09-04T20:16:44.615Z,73.60
2017-09-04T20:19:12.319Z,74.80
2017-09-04T20:21:40.069Z,74.60
2017-09-04T20:24:07.833Z,74.00
2017-09-04T20:26:35.561Z,74.40
2017-09-04T20:29:03.286Z,74.50
2017-09-04T20:31:31.000Z,74.20
2017-09-04T20:33:58.659Z,74.50
2017-09-04T20:36:26.374Z,75.10
2017-09-04T20:38:54.075Z,77.30
2017-09-04T20:41:21.788Z,76.90
2017-09-04T20:43:49.504Z,77.40
2017-09-04T20:46:17.208Z,76.10
2017-09-04T20:48:44.877Z,75.00
2017-09-04T20:51:12.619Z,73.90
2017-09-04T20:53:40.299Z,73.30
2017-09-04T20:56:07.999Z,73.10
2017-09-04T20:58:35.712Z,73.60
2017-09-04T21:01:03.471Z,74.20
2017-09-04T21:03:31.171Z,73.40
2017-09-04T21:05:58.861Z,73.30
2017-09-04T21:08:26.611Z,73.50
2017-09-04T21:10:54.314Z,73.50
2017-09-04T21:13:22.054Z,74.10
2017-09-04T21:15:49.765Z,74.60
2017-09-04T21:18:17.508Z,75.30
2017-09-04T21:20:45.214Z,75.20
2017-09-04T21:23:12.956Z,75.50
2017-09-04T21:25:40.655Z,75.40
2017-09-04T21:28:08.404Z,75.80
2017-09-04T21:30:36.109Z,76.00
2017-09-04T21:33:03.855Z,76.00
2017-09-04T21:35:31.559Z,75.80
2017-09-04T21:37:59.299Z,76.40
2017-09-04T21:40:26.998Z,76.40
2017-09-04T21:42:54.744Z,77.10
2017-09-04T21:45:22.450Z,77.40
2017-09-04T21:47:50.163Z,77.40
2017-09-04T21:50:17.819Z,76.80
2017-09-04T21:52:45.539Z,76.90
2017-09-04T21:55:13.212Z,76.00
2017-09-04T21:57:40.915Z,76.70
2017-09-04T22:00:08.613Z,76.90
2017-09-04T22:02:36.332Z,76.50
2017-09-04T22:05:04.026Z,76.70
2017-09-04T22:07:31.713Z,76.90
2017-09-04T22:09:59.422Z,76.90
2017-09-04T22:12:27.081Z,78.30
2017-09-04T22:14:54.793Z,79.10
2017-09-04T22:17:22.465Z,80.40
2017-09-04T22:19:50.163Z,80.30
2017-09-04T22:22:17.819Z,80.20
2017-09-04T22:24:45.572Z,79.40
2017-09-04T22:27:13.279Z,79.30
2017-09-04T22:29:41.023Z,79.20
2017-09-04T22:32:08.735Z,79.60
2017-09-04T22:34:36.489Z,78.70
2017-09-04T22:37:04.199Z,78.40
2017-09-04T22:39:31.948Z,78.00
2017-09-04T22:41:59.612Z,78.50
2017-09-04T22:44:27.315Z,78.20
2017-09-04T22:46:55.025Z,78.20
2017-09-04T22:49:22.772Z,78.40
2017-09-04T22:51:50.476Z,78.40
2017-09-04T22:54:18.220Z,78.30
2017-09-04T22:56:46.692Z,79.00
2017-09-04T22:59:16.049Z,79.00
2017-09-04T23:01:43.748Z,78.60
2017-09-04T23:04:11.492Z,79.20
2017-09-04T23:06:39.193Z,78.80
2017-09-04T23:09:06.958Z,78.60
2017-09-04T23:11:34.659Z,79.00
2017-09-04T23:14:02.336Z,79.20
2017-09-04T23:16:30.080Z,78.90
2017-09-04T23:18:57.743Z,78.70
2017-09-04T23:21:25.495Z,78.80
2017-09-04T23:23:53.191Z,78.80
2017-09-04T23:26:20.935Z,79.30
2017-09-04T23:28:48.601Z,79.20
2017-09-04T23:31:16.340Z,79.20
2017-09-04T23:33:44.044Z,78.70
2017-09-04T23:36:11.758Z,78.60
2017-09-04T23:38:39.464Z,78.80
2017-09-04T23:41:07.222Z,78.90
2017-09-04T23:43:34.929Z,78.90
2017-09-04T23:46:02.636Z,79.40
2017-09-04T23:48:30.304Z,78.90
2017-09-04T23:50:58.788Z,79.10
2017-09-04T23:53:26.444Z,79.10
2017-09-04T23:55:54.148Z,79.70
2017-09-04T23:58:21.851Z,79.10
